New Carlisle, IN

1:06 PM CDT on March 23, 2017 (GMT -0500)
Bendix Woods County Park | | Change Station

Elev 835 ft 41.66 °N, 86.51 °W | Updated 4 seconds ago

Overcast
Overcast
39.1 °F
Feels Like 31 °F
N
13.0
Wind Variable Wind from SSE
Gusts 18.0 mph

Today
High -- | Low -- °F
--% Chance of Precip.
Yesterday
High -- | Low -- °F
Precip. -- in
Pressure 30.38 in
Visibility 10.0 miles
Clouds Scattered Clouds 11000 ft
Windchill 31 °F
Dew Point 22 °F
Humidity 49%
Rainfall 0.00 in
Snow Depth Not available.
6:43 AM 7:01 PM
Waning Crescent, 21% visible
METAR KPPO 231750Z AUTO 15012G16KT 10SM SCT110 04/M06 A3038 RMK AO2 T00441060
Pressure 30.38 in
Visibility 10.0 miles
Clouds Scattered Clouds 11000 ft
Windchill 31 °F
Dew Point 22 °F
Humidity 49%
Rainfall 0.00 in
Snow Depth Not available.
6:43 AM 7:01 PM
Waning Crescent, 21% visible
METAR KPPO 231750Z AUTO 15012G16KT 10SM SCT110 04/M06 A3038 RMK AO2 T00441060

Get Severe Weather Alerts

Thanks for signing up!

Be on the lookout for a verification email in your inbox.

You'll start receiving the daily forecast at 8 AM.

×

10-Day Weather Forecast

Almanac

Astronomy

Mar. 23, 2017 Rise Set
Actual Time
Civil Twilight
Nautical Twilight
Astronomical Twilight
Moon
Length of Visible Light
Length of Day
Tomorrow will be .
, % of the Moon is Illuminated

Today's Extremes

State Highs State Lows

Community

WunderPhotos

Upload Photos

1,962,540 photos uploaded!

WunderBlog® & News

Nearby

Air Quality

  Air Quality AQ Index Pollutant
Not available.

Snow Depth

Station Depth Elevation

Earthquake Activity

City Distance Mag. Time & Date
Minimum magnitude displayed is 2.5.

Earthquake Activity

City Distance Mag. Time & Date
Minimum magnitude displayed is 2.5.

Coastal Water Temperatures

Place Temperature

Stations

Nearby Weather Stations

Station Location Temp. Windchill Dew Point Humidity Wind Precip. Elev Updated Type
                   

Watches & Warnings

There are currently no watches in effect.